Calama, Chile
Current Conditions -  °F | °C
As of 5:00 PM on Wednesday 22 Oct 2014 (Local Time) from SCCF Reporting Station
Clear Clear  
Wind Chill: 77°   Ceiling: Unl
Heat Index: 77°   Visibility: 6mi
Dew Point: 14°   Wind: 21mph
Humidity: 9%   Direction: 260°W
Pressure: 30.24"   Gusts: NA
Location:  22.45°S, 68.92°W
Report Text: SCCF 222100Z 26018KT CAVOK 25/M10 Q1024
Loading
Personal Weather Stations






























Interactive Weather Map
Tropical Storm Tracking
New forecast layout! Learn more

10-Day Weather Forecast

Advertisements
Track Severe Weather on mobile